Time;durP1;ratioP1;P1;durP2;ratioP2;P2;SDS_P1;SDS_P2;PMS_P1;PMS_P2;Temp;Humidity;BMP_temperature;BMP_pressure;BME280_temperature;BME280_humidity;BME280_pressure;Samples;Min_cycle;Max_cycle;Signal;HPM_P1;HPM_P2
2022/06/19 00:00:14;;;;;;;7.850001;3.9;;;;;;;19.41;55.93848;95119.23;;;;
2022/06/19 00:01:15;;;;;;;6.55;4.05;;;;;;;19.45;56.36328;95091.75;;;;
2022/06/19 00:02:16;;;;;;;6.55;4.05;;;;;;;19.45;56.36328;95091.75;;;;
2022/06/19 00:03:19;;;;;;;6.55;4.05;;;;;;;19.45;56.36328;95091.75;;;;
2022/06/19 00:04:24;;;;;;;6.55;4.05;;;;;;;19.45;56.36328;95091.75;;;;
2022/06/19 00:05:24;;;;;;;6.55;4.05;;;;;;;19.45;56.36328;95091.75;;;;
2022/06/19 00:06:25;;;;;;;6.55;4.05;;;;;;;19.45;56.36328;95091.75;;;;
2022/06/19 00:07:26;;;;;;;6.55;4.05;;;;;;;19.45;56.36328;95091.75;;;;
2022/06/19 00:08:26;;;;;;;6.55;4.05;;;;;;;19.45;56.36328;95091.75;;;;
2022/06/19 00:09:28;;;;;;;6.55;4.05;;;;;;;19.45;56.36328;95091.75;;;;
2022/06/19 00:10:29;;;;;;;6.55;4.05;;;;;;;19.45;56.36328;95091.75;;;;
2022/06/19 00:11:29;;;;;;;6.55;4.05;;;;;;;19.45;56.36328;95091.75;;;;
2022/06/19 00:12:30;;;;;;;7.399999;3.75;;;;;;;19.45;56.68262;95066.28;;;;
2022/06/19 00:13:30;;;;;;;7.399999;3.75;;;;;;;19.45;56.68262;95066.28;;;;
2022/06/19 00:14:33;;;;;;;7.399999;3.75;;;;;;;19.45;56.68262;95066.28;;;;
2022/06/19 00:15:34;;;;;;;7.399999;3.75;;;;;;;19.45;56.68262;95066.28;;;;
2022/06/19 00:16:35;;;;;;;7.399999;3.75;;;;;;;19.45;56.68262;95066.28;;;;
2022/06/19 00:17:36;;;;;;;7.399999;3.75;;;;;;;19.45;56.68262;95066.28;;;;
2022/06/19 00:18:38;;;;;;;7.399999;3.75;;;;;;;19.45;56.68262;95066.28;;;;
2022/06/19 00:19:39;;;;;;;7.399999;3.75;;;;;;;19.45;56.68262;95066.28;;;;
2022/06/19 00:20:40;;;;;;;7.399999;3.75;;;;;;;19.45;56.68262;95066.28;;;;
2022/06/19 00:21:41;;;;;;;7.399999;3.75;;;;;;;19.45;56.68262;95066.28;;;;
2022/06/19 00:22:41;;;;;;;9.1;4.45;;;;;;;19.53;56.73828;95051.9;;;;
2022/06/19 00:23:41;;;;;;;9.1;4.45;;;;;;;19.53;56.73828;95051.9;;;;
2022/06/19 00:24:42;;;;;;;9.1;4.45;;;;;;;19.53;56.73828;95051.9;;;;
2022/06/19 00:25:43;;;;;;;9.1;4.45;;;;;;;19.53;56.73828;95051.9;;;;
2022/06/19 00:26:44;;;;;;;9.1;4.45;;;;;;;19.53;56.73828;95051.9;;;;
2022/06/19 00:27:44;;;;;;;9.1;4.45;;;;;;;19.53;56.73828;95051.9;;;;
2022/06/19 00:28:47;;;;;;;9.1;4.45;;;;;;;19.53;56.73828;95051.9;;;;
2022/06/19 00:29:47;;;;;;;9.1;4.45;;;;;;;19.53;56.73828;95051.9;;;;
2022/06/19 00:30:48;;;;;;;9.1;4.45;;;;;;;19.53;56.73828;95051.9;;;;
2022/06/19 00:31:48;;;;;;;9.1;4.45;;;;;;;19.53;56.73828;95051.9;;;;
2022/06/19 00:32:49;;;;;;;9.1;4.45;;;;;;;19.53;56.73828;95051.9;;;;
2022/06/19 00:33:49;;;;;;;9.199999;3.8;;;;;;;19.64;56.84082;95023.44;;;;
2022/06/19 00:34:50;;;;;;;9.199999;3.8;;;;;;;19.64;56.84082;95023.44;;;;
2022/06/19 00:35:50;;;;;;;9.199999;3.8;;;;;;;19.64;56.84082;95023.44;;;;
2022/06/19 00:36:51;;;;;;;9.199999;3.8;;;;;;;19.64;56.84082;95023.44;;;;
2022/06/19 00:37:51;;;;;;;9.199999;3.8;;;;;;;19.64;56.84082;95023.44;;;;
2022/06/19 00:38:53;;;;;;;9.199999;3.8;;;;;;;19.64;56.84082;95023.44;;;;
2022/06/19 00:39:54;;;;;;;9.199999;3.8;;;;;;;19.64;56.84082;95023.44;;;;
2022/06/19 00:40:54;;;;;;;9.199999;3.8;;;;;;;19.64;56.84082;95023.44;;;;
2022/06/19 00:41:56;;;;;;;9.199999;3.8;;;;;;;19.64;56.84082;95023.44;;;;
2022/06/19 00:42:57;;;;;;;9.199999;3.8;;;;;;;19.64;56.84082;95023.44;;;;
2022/06/19 00:43:57;;;;;;;8.25;4.149999;;;;;;;19.76;56.82227;95024.48;;;;
2022/06/19 00:45:00;;;;;;;8.25;4.149999;;;;;;;19.76;56.82227;95024.48;;;;
2022/06/19 00:46:01;;;;;;;8.25;4.149999;;;;;;;19.76;56.82227;95024.48;;;;
2022/06/19 00:47:38;;;;;;;8.25;4.149999;;;;;;;19.76;56.82227;95024.48;;;;
2022/06/19 00:48:40;;;;;;;8.25;4.149999;;;;;;;19.76;56.82227;95024.48;;;;
2022/06/19 00:49:40;;;;;;;8.25;4.149999;;;;;;;19.76;56.82227;95024.48;;;;
2022/06/19 00:50:47;;;;;;;8.25;4.149999;;;;;;;19.76;56.82227;95024.48;;;;
2022/06/19 00:51:50;;;;;;;8.25;4.149999;;;;;;;19.76;56.82227;95024.48;;;;
2022/06/19 00:52:59;;;;;;;8.25;4.149999;;;;;;;19.76;56.82227;95024.48;;;;
2022/06/19 00:54:01;;;;;;;8.25;4.149999;;;;;;;19.76;56.82227;95024.48;;;;
2022/06/19 00:55:03;;;;;;;12.5;4.2;;;;;;;19.72;56.98242;95006.78;;;;
2022/06/19 00:56:08;;;;;;;12.5;4.2;;;;;;;19.72;56.98242;95006.78;;;;
2022/06/19 00:57:14;;;;;;;12.5;4.2;;;;;;;19.72;56.98242;95006.78;;;;
2022/06/19 00:58:16;;;;;;;12.5;4.2;;;;;;;19.72;56.98242;95006.78;;;;
2022/06/19 00:59:22;;;;;;;12.5;4.2;;;;;;;19.72;56.98242;95006.78;;;;
2022/06/19 01:00:26;;;;;;;12.5;4.2;;;;;;;19.72;56.98242;95006.78;;;;
2022/06/19 01:01:29;;;;;;;12.5;4.2;;;;;;;19.72;56.98242;95006.78;;;;
2022/06/19 01:02:31;;;;;;;12.5;4.2;;;;;;;19.72;56.98242;95006.78;;;;
2022/06/19 01:03:32;;;;;;;12.5;4.2;;;;;;;19.72;56.98242;95006.78;;;;
2022/06/19 01:04:54;;;;;;;12.5;4.2;;;;;;;19.72;56.98242;95006.78;;;;
2022/06/19 01:05:56;;;;;;;9.649999;4.15;;;;;;;19.56;57.04004;95007.92;;;;
2022/06/19 01:06:57;;;;;;;9.649999;4.15;;;;;;;19.56;57.04004;95007.92;;;;
2022/06/19 01:07:57;;;;;;;9.649999;4.15;;;;;;;19.56;57.04004;95007.92;;;;
2022/06/19 01:09:00;;;;;;;9.649999;4.15;;;;;;;19.56;57.04004;95007.92;;;;
2022/06/19 01:10:01;;;;;;;9.649999;4.15;;;;;;;19.56;57.04004;95007.92;;;;
2022/06/19 01:11:02;;;;;;;9.649999;4.15;;;;;;;19.56;57.04004;95007.92;;;;
2022/06/19 01:12:05;;;;;;;9.649999;4.15;;;;;;;19.56;57.04004;95007.92;;;;
2022/06/19 01:13:06;;;;;;;9.649999;4.15;;;;;;;19.56;57.04004;95007.92;;;;
2022/06/19 01:14:08;;;;;;;9.649999;4.15;;;;;;;19.56;57.04004;95007.92;;;;
2022/06/19 01:15:11;;;;;;;9.649999;4.15;;;;;;;19.56;57.04004;95007.92;;;;
2022/06/19 01:16:15;;;;;;;10.2;4.25;;;;;;;19.13;57.5918;94998.22;;;;
2022/06/19 01:17:16;;;;;;;10.2;4.25;;;;;;;19.13;57.5918;94998.22;;;;
2022/06/19 01:18:18;;;;;;;10.2;4.25;;;;;;;19.13;57.5918;94998.22;;;;
2022/06/19 01:19:20;;;;;;;10.2;4.25;;;;;;;19.13;57.5918;94998.22;;;;
2022/06/19 01:20:25;;;;;;;10.2;4.25;;;;;;;19.13;57.5918;94998.22;;;;
2022/06/19 01:21:27;;;;;;;10.2;4.25;;;;;;;19.13;57.5918;94998.22;;;;
2022/06/19 01:22:36;;;;;;;10.2;4.25;;;;;;;19.13;57.5918;94998.22;;;;
2022/06/19 01:23:45;;;;;;;10.2;4.25;;;;;;;19.13;57.5918;94998.22;;;;
2022/06/19 01:24:53;;;;;;;10.2;4.25;;;;;;;19.13;57.5918;94998.22;;;;
2022/06/19 01:26:04;;;;;;;10.2;4.25;;;;;;;19.13;57.5918;94998.22;;;;
2022/06/19 01:27:05;;;;;;;8.999999;4.150001;;;;;;;18.77;58.17285;94967.77;;;;
2022/06/19 01:29:14;;;;;;;8.999999;4.150001;;;;;;;18.77;58.17285;94967.77;;;;
2022/06/19 01:30:18;;;;;;;8.999999;4.150001;;;;;;;18.77;58.17285;94967.77;;;;
2022/06/19 01:31:20;;;;;;;8.999999;4.150001;;;;;;;18.77;58.17285;94967.77;;;;
2022/06/19 01:32:24;;;;;;;8.999999;4.150001;;;;;;;18.77;58.17285;94967.77;;;;
2022/06/19 01:33:25;;;;;;;8.999999;4.150001;;;;;;;18.77;58.17285;94967.77;;;;
2022/06/19 01:34:32;;;;;;;8.999999;4.150001;;;;;;;18.77;58.17285;94967.77;;;;
2022/06/19 01:35:37;;;;;;;8.999999;4.150001;;;;;;;18.77;58.17285;94967.77;;;;
2022/06/19 01:36:39;;;;;;;8.999999;4.150001;;;;;;;18.77;58.17285;94967.77;;;;
2022/06/19 01:37:40;;;;;;;9.8;3.85;;;;;;;18.37;58.58301;94956.91;;;;
2022/06/19 01:38:42;;;;;;;9.8;3.85;;;;;;;18.37;58.58301;94956.91;;;;
2022/06/19 01:39:45;;;;;;;9.8;3.85;;;;;;;18.37;58.58301;94956.91;;;;
2022/06/19 01:40:51;;;;;;;9.8;3.85;;;;;;;18.37;58.58301;94956.91;;;;
2022/06/19 01:41:54;;;;;;;9.8;3.85;;;;;;;18.37;58.58301;94956.91;;;;
2022/06/19 01:42:55;;;;;;;9.8;3.85;;;;;;;18.37;58.58301;94956.91;;;;
2022/06/19 01:43:56;;;;;;;9.8;3.85;;;;;;;18.37;58.58301;94956.91;;;;
2022/06/19 01:44:56;;;;;;;9.8;3.85;;;;;;;18.37;58.58301;94956.91;;;;
2022/06/19 01:45:58;;;;;;;9.8;3.85;;;;;;;18.37;58.58301;94956.91;;;;
2022/06/19 01:47:01;;;;;;;9.8;3.85;;;;;;;18.37;58.58301;94956.91;;;;
2022/06/19 01:48:02;;;;;;;11.3;4.400001;;;;;;;18.26;58.97559;94936.17;;;;
2022/06/19 01:49:03;;;;;;;11.3;4.400001;;;;;;;18.26;58.97559;94936.17;;;;
2022/06/19 01:50:04;;;;;;;11.3;4.400001;;;;;;;18.26;58.97559;94936.17;;;;
2022/06/19 01:51:08;;;;;;;11.3;4.400001;;;;;;;18.26;58.97559;94936.17;;;;
2022/06/19 01:52:08;;;;;;;11.3;4.400001;;;;;;;18.26;58.97559;94936.17;;;;
2022/06/19 01:53:09;;;;;;;11.3;4.400001;;;;;;;18.26;58.97559;94936.17;;;;
2022/06/19 01:54:15;;;;;;;11.3;4.400001;;;;;;;18.26;58.97559;94936.17;;;;
2022/06/19 01:55:21;;;;;;;11.3;4.400001;;;;;;;18.26;58.97559;94936.17;;;;
2022/06/19 01:56:22;;;;;;;11.3;4.400001;;;;;;;18.26;58.97559;94936.17;;;;
2022/06/19 01:57:24;;;;;;;11.3;4.400001;;;;;;;18.26;58.97559;94936.17;;;;
2022/06/19 01:58:25;;;;;;;11.3;4.400001;;;;;;;18.26;58.97559;94936.17;;;;
2022/06/19 01:59:31;;;;;;;10.7;4.450001;;;;;;;18.2;59.04395;94921.59;;;;
2022/06/19 02:00:34;;;;;;;10.7;4.450001;;;;;;;18.2;59.04395;94921.59;;;;
2022/06/19 02:01:36;;;;;;;10.7;4.450001;;;;;;;18.2;59.04395;94921.59;;;;
2022/06/19 02:02:39;;;;;;;10.7;4.450001;;;;;;;18.2;59.04395;94921.59;;;;
2022/06/19 02:03:44;;;;;;;10.7;4.450001;;;;;;;18.2;59.04395;94921.59;;;;
2022/06/19 02:04:49;;;;;;;10.7;4.450001;;;;;;;18.2;59.04395;94921.59;;;;
2022/06/19 02:05:50;;;;;;;10.7;4.450001;;;;;;;18.2;59.04395;94921.59;;;;
2022/06/19 02:06:51;;;;;;;10.7;4.450001;;;;;;;18.2;59.04395;94921.59;;;;
2022/06/19 02:07:56;;;;;;;10.7;4.450001;;;;;;;18.2;59.04395;94921.59;;;;
2022/06/19 02:08:57;;;;;;;10.7;4.450001;;;;;;;18.2;59.04395;94921.59;;;;
2022/06/19 02:10:00;;;;;;;9.949999;4;;;;;;;18.18;59.09668;94905;;;;
2022/06/19 02:11:01;;;;;;;9.949999;4;;;;;;;18.18;59.09668;94905;;;;
2022/06/19 02:12:05;;;;;;;9.949999;4;;;;;;;18.18;59.09668;94905;;;;
2022/06/19 02:13:07;;;;;;;9.949999;4;;;;;;;18.18;59.09668;94905;;;;
2022/06/19 02:14:09;;;;;;;9.949999;4;;;;;;;18.18;59.09668;94905;;;;
2022/06/19 02:15:12;;;;;;;9.949999;4;;;;;;;18.18;59.09668;94905;;;;
2022/06/19 02:16:13;;;;;;;9.949999;4;;;;;;;18.18;59.09668;94905;;;;
2022/06/19 02:17:18;;;;;;;9.949999;4;;;;;;;18.18;59.09668;94905;;;;
2022/06/19 02:18:22;;;;;;;9.949999;4;;;;;;;18.18;59.09668;94905;;;;
2022/06/19 02:19:27;;;;;;;9.949999;4;;;;;;;18.18;59.09668;94905;;;;
2022/06/19 02:20:27;;;;;;;10.1;4.05;;;;;;;18.13;59.08887;94894.82;;;;
2022/06/19 02:21:28;;;;;;;10.1;4.05;;;;;;;18.13;59.08887;94894.82;;;;
2022/06/19 02:22:39;;;;;;;10.1;4.05;;;;;;;18.13;59.08887;94894.82;;;;
2022/06/19 02:23:39;;;;;;;10.1;4.05;;;;;;;18.13;59.08887;94894.82;;;;
2022/06/19 02:24:40;;;;;;;10.1;4.05;;;;;;;18.13;59.08887;94894.82;;;;
2022/06/19 02:25:44;;;;;;;10.1;4.05;;;;;;;18.13;59.08887;94894.82;;;;
2022/06/19 02:26:44;;;;;;;10.1;4.05;;;;;;;18.13;59.08887;94894.82;;;;
2022/06/19 02:27:45;;;;;;;10.1;4.05;;;;;;;18.13;59.08887;94894.82;;;;
2022/06/19 02:28:47;;;;;;;10.1;4.05;;;;;;;18.13;59.08887;94894.82;;;;
2022/06/19 02:29:50;;;;;;;10.1;4.05;;;;;;;18.13;59.08887;94894.82;;;;
2022/06/19 02:30:51;;;;;;;10.05;4.15;;;;;;;18.14;59.19043;94883.84;;;;
2022/06/19 02:31:52;;;;;;;10.05;4.15;;;;;;;18.14;59.19043;94883.84;;;;
2022/06/19 02:32:54;;;;;;;10.05;4.15;;;;;;;18.14;59.19043;94883.84;;;;
2022/06/19 02:33:55;;;;;;;10.05;4.15;;;;;;;18.14;59.19043;94883.84;;;;
2022/06/19 02:35:01;;;;;;;10.05;4.15;;;;;;;18.14;59.19043;94883.84;;;;
2022/06/19 02:36:02;;;;;;;10.05;4.15;;;;;;;18.14;59.19043;94883.84;;;;
2022/06/19 02:37:31;;;;;;;10.05;4.15;;;;;;;18.14;59.19043;94883.84;;;;
2022/06/19 02:38:38;;;;;;;10.05;4.15;;;;;;;18.14;59.19043;94883.84;;;;
2022/06/19 02:39:38;;;;;;;10.05;4.15;;;;;;;18.14;59.19043;94883.84;;;;
2022/06/19 02:40:44;;;;;;;10.05;4.15;;;;;;;18.14;59.19043;94883.84;;;;
2022/06/19 02:41:55;;;;;;;8.599999;4.35;;;;;;;18.02;59.40527;94869.95;;;;
2022/06/19 02:43:03;;;;;;;8.599999;4.35;;;;;;;18.02;59.40527;94869.95;;;;
2022/06/19 02:44:08;;;;;;;8.599999;4.35;;;;;;;18.02;59.40527;94869.95;;;;
2022/06/19 02:45:10;;;;;;;8.599999;4.35;;;;;;;18.02;59.40527;94869.95;;;;
2022/06/19 02:46:13;;;;;;;8.599999;4.35;;;;;;;18.02;59.40527;94869.95;;;;
2022/06/19 02:47:15;;;;;;;8.599999;4.35;;;;;;;18.02;59.40527;94869.95;;;;
2022/06/19 02:48:16;;;;;;;8.599999;4.35;;;;;;;18.02;59.40527;94869.95;;;;
2022/06/19 02:49:20;;;;;;;8.599999;4.35;;;;;;;18.02;59.40527;94869.95;;;;
2022/06/19 02:50:20;;;;;;;8.599999;4.35;;;;;;;18.02;59.40527;94869.95;;;;
2022/06/19 02:51:24;;;;;;;8.599999;4.35;;;;;;;18.02;59.40527;94869.95;;;;
2022/06/19 02:52:24;;;;;;;12.55;4.75;;;;;;;17.89;59.52051;94868.22;;;;
2022/06/19 02:53:25;;;;;;;12.55;4.75;;;;;;;17.89;59.52051;94868.22;;;;
2022/06/19 02:54:27;;;;;;;12.55;4.75;;;;;;;17.89;59.52051;94868.22;;;;
2022/06/19 02:55:28;;;;;;;12.55;4.75;;;;;;;17.89;59.52051;94868.22;;;;
2022/06/19 02:56:28;;;;;;;12.55;4.75;;;;;;;17.89;59.52051;94868.22;;;;
2022/06/19 02:57:29;;;;;;;12.55;4.75;;;;;;;17.89;59.52051;94868.22;;;;
2022/06/19 02:58:30;;;;;;;12.55;4.75;;;;;;;17.89;59.52051;94868.22;;;;
2022/06/19 02:59:30;;;;;;;12.55;4.75;;;;;;;17.89;59.52051;94868.22;;;;
2022/06/19 03:00:31;;;;;;;12.55;4.75;;;;;;;17.89;59.52051;94868.22;;;;
2022/06/19 03:01:33;;;;;;;12.55;4.75;;;;;;;17.89;59.52051;94868.22;;;;
2022/06/19 03:02:33;;;;;;;9.6;4.35;;;;;;;17.62;59.8457;94857.5;;;;
2022/06/19 03:03:35;;;;;;;9.6;4.35;;;;;;;17.62;59.8457;94857.5;;;;
2022/06/19 03:04:36;;;;;;;9.6;4.35;;;;;;;17.62;59.8457;94857.5;;;;
2022/06/19 03:05:41;;;;;;;9.6;4.35;;;;;;;17.62;59.8457;94857.5;;;;
2022/06/19 03:06:42;;;;;;;9.6;4.35;;;;;;;17.62;59.8457;94857.5;;;;
2022/06/19 03:07:43;;;;;;;9.6;4.35;;;;;;;17.62;59.8457;94857.5;;;;
2022/06/19 03:08:43;;;;;;;9.6;4.35;;;;;;;17.62;59.8457;94857.5;;;;
2022/06/19 03:09:44;;;;;;;9.6;4.35;;;;;;;17.62;59.8457;94857.5;;;;
2022/06/19 03:10:44;;;;;;;9.6;4.35;;;;;;;17.62;59.8457;94857.5;;;;
2022/06/19 03:11:45;;;;;;;9.6;4.35;;;;;;;17.62;59.8457;94857.5;;;;
2022/06/19 03:12:46;;;;;;;9.6;4.35;;;;;;;17.62;59.8457;94857.5;;;;
2022/06/19 03:13:47;;;;;;;9.05;4.5;;;;;;;17.37;60.30469;94862.23;;;;
2022/06/19 03:14:47;;;;;;;9.05;4.5;;;;;;;17.37;60.30469;94862.23;;;;
2022/06/19 03:15:48;;;;;;;9.05;4.5;;;;;;;17.37;60.30469;94862.23;;;;
2022/06/19 03:16:58;;;;;;;9.05;4.5;;;;;;;17.37;60.30469;94862.23;;;;
2022/06/19 03:17:59;;;;;;;9.05;4.5;;;;;;;17.37;60.30469;94862.23;;;;
2022/06/19 03:18:59;;;;;;;9.05;4.5;;;;;;;17.37;60.30469;94862.23;;;;
2022/06/19 03:20:01;;;;;;;9.05;4.5;;;;;;;17.37;60.30469;94862.23;;;;
2022/06/19 03:21:01;;;;;;;9.05;4.5;;;;;;;17.37;60.30469;94862.23;;;;
2022/06/19 03:22:02;;;;;;;9.05;4.5;;;;;;;17.37;60.30469;94862.23;;;;
2022/06/19 03:23:03;;;;;;;9.05;4.5;;;;;;;17.37;60.30469;94862.23;;;;
2022/06/19 03:24:04;;;;;;;9.450001;4.400001;;;;;;;17.18;60.70703;94860.3;;;;
2022/06/19 03:25:05;;;;;;;9.450001;4.400001;;;;;;;17.18;60.70703;94860.3;;;;
2022/06/19 03:26:06;;;;;;;9.450001;4.400001;;;;;;;17.18;60.70703;94860.3;;;;
2022/06/19 03:27:07;;;;;;;9.450001;4.400001;;;;;;;17.18;60.70703;94860.3;;;;
2022/06/19 03:28:09;;;;;;;9.450001;4.400001;;;;;;;17.18;60.70703;94860.3;;;;
2022/06/19 03:29:10;;;;;;;9.450001;4.400001;;;;;;;17.18;60.70703;94860.3;;;;
2022/06/19 03:30:11;;;;;;;9.450001;4.400001;;;;;;;17.18;60.70703;94860.3;;;;
2022/06/19 03:31:14;;;;;;;9.450001;4.400001;;;;;;;17.18;60.70703;94860.3;;;;
2022/06/19 03:32:18;;;;;;;9.450001;4.400001;;;;;;;17.18;60.70703;94860.3;;;;
2022/06/19 03:33:18;;;;;;;9.450001;4.400001;;;;;;;17.18;60.70703;94860.3;;;;
2022/06/19 03:34:19;;;;;;;9.450001;4.400001;;;;;;;17.18;60.70703;94860.3;;;;
2022/06/19 03:35:19;;;;;;;8.55;4.3;;;;;;;17.2;60.79883;94864.71;;;;
2022/06/19 03:36:20;;;;;;;8.55;4.3;;;;;;;17.2;60.79883;94864.71;;;;
2022/06/19 03:37:22;;;;;;;8.55;4.3;;;;;;;17.2;60.79883;94864.71;;;;
2022/06/19 03:38:22;;;;;;;8.55;4.3;;;;;;;17.2;60.79883;94864.71;;;;
2022/06/19 03:39:24;;;;;;;8.55;4.3;;;;;;;17.2;60.79883;94864.71;;;;
2022/06/19 03:40:24;;;;;;;8.55;4.3;;;;;;;17.2;60.79883;94864.71;;;;
2022/06/19 03:41:25;;;;;;;8.55;4.3;;;;;;;17.2;60.79883;94864.71;;;;
2022/06/19 03:42:25;;;;;;;8.55;4.3;;;;;;;17.2;60.79883;94864.71;;;;
2022/06/19 03:43:26;;;;;;;8.55;4.3;;;;;;;17.2;60.79883;94864.71;;;;
2022/06/19 03:44:26;;;;;;;8.55;4.3;;;;;;;17.2;60.79883;94864.71;;;;
2022/06/19 03:45:27;;;;;;;10.55;4.75;;;;;;;17.16;61.05566;94873.52;;;;
2022/06/19 03:46:27;;;;;;;10.55;4.75;;;;;;;17.16;61.05566;94873.52;;;;
2022/06/19 03:47:30;;;;;;;10.55;4.75;;;;;;;17.16;61.05566;94873.52;;;;
2022/06/19 03:48:30;;;;;;;10.55;4.75;;;;;;;17.16;61.05566;94873.52;;;;
2022/06/19 03:49:31;;;;;;;10.55;4.75;;;;;;;17.16;61.05566;94873.52;;;;
2022/06/19 03:50:31;;;;;;;10.55;4.75;;;;;;;17.16;61.05566;94873.52;;;;
2022/06/19 03:51:32;;;;;;;10.55;4.75;;;;;;;17.16;61.05566;94873.52;;;;
2022/06/19 03:52:32;;;;;;;10.55;4.75;;;;;;;17.16;61.05566;94873.52;;;;
2022/06/19 03:53:33;;;;;;;10.55;4.75;;;;;;;17.16;61.05566;94873.52;;;;
2022/06/19 03:54:34;;;;;;;10.55;4.75;;;;;;;17.16;61.05566;94873.52;;;;
2022/06/19 03:55:35;;;;;;;10.55;4.75;;;;;;;17.16;61.05566;94873.52;;;;
2022/06/19 03:56:36;;;;;;;14.55;4.8;;;;;;;17.19;61.35547;94869.92;;;;
2022/06/19 03:57:37;;;;;;;14.55;4.8;;;;;;;17.19;61.35547;94869.92;;;;
2022/06/19 03:58:53;;;;;;;14.55;4.8;;;;;;;17.19;61.35547;94869.92;;;;
2022/06/19 03:59:54;;;;;;;14.55;4.8;;;;;;;17.19;61.35547;94869.92;;;;
2022/06/19 04:00:55;;;;;;;14.55;4.8;;;;;;;17.19;61.35547;94869.92;;;;
2022/06/19 04:01:55;;;;;;;14.55;4.8;;;;;;;17.19;61.35547;94869.92;;;;
2022/06/19 04:02:56;;;;;;;14.55;4.8;;;;;;;17.19;61.35547;94869.92;;;;
2022/06/19 04:03:57;;;;;;;14.55;4.8;;;;;;;17.19;61.35547;94869.92;;;;
2022/06/19 04:04:57;;;;;;;14.55;4.8;;;;;;;17.19;61.35547;94869.92;;;;
2022/06/19 04:05:59;;;;;;;14.55;4.8;;;;;;;17.19;61.35547;94869.92;;;;
2022/06/19 04:07:00;;;;;;;10.8;5.149999;;;;;;;17.21;61.51172;94872.61;;;;
2022/06/19 04:08:00;;;;;;;10.8;5.149999;;;;;;;17.21;61.51172;94872.61;;;;
2022/06/19 04:09:01;;;;;;;10.8;5.149999;;;;;;;17.21;61.51172;94872.61;;;;
2022/06/19 04:10:04;;;;;;;10.8;5.149999;;;;;;;17.21;61.51172;94872.61;;;;
2022/06/19 04:11:05;;;;;;;10.8;5.149999;;;;;;;17.21;61.51172;94872.61;;;;
2022/06/19 04:12:07;;;;;;;10.8;5.149999;;;;;;;17.21;61.51172;94872.61;;;;
2022/06/19 04:13:08;;;;;;;10.8;5.149999;;;;;;;17.21;61.51172;94872.61;;;;
2022/06/19 04:14:09;;;;;;;10.8;5.149999;;;;;;;17.21;61.51172;94872.61;;;;
2022/06/19 04:15:10;;;;;;;10.8;5.149999;;;;;;;17.21;61.51172;94872.61;;;;
2022/06/19 04:16:12;;;;;;;10.8;5.149999;;;;;;;17.21;61.51172;94872.61;;;;
2022/06/19 04:17:15;;;;;;;11.1;4.35;;;;;;;17.34;61.70508;94872.64;;;;
2022/06/19 04:18:16;;;;;;;11.1;4.35;;;;;;;17.34;61.70508;94872.64;;;;
2022/06/19 04:19:16;;;;;;;11.1;4.35;;;;;;;17.34;61.70508;94872.64;;;;
2022/06/19 04:20:17;;;;;;;11.1;4.35;;;;;;;17.34;61.70508;94872.64;;;;
2022/06/19 04:21:17;;;;;;;11.1;4.35;;;;;;;17.34;61.70508;94872.64;;;;
2022/06/19 04:22:20;;;;;;;11.1;4.35;;;;;;;17.34;61.70508;94872.64;;;;
2022/06/19 04:23:22;;;;;;;11.1;4.35;;;;;;;17.34;61.70508;94872.64;;;;
2022/06/19 04:24:22;;;;;;;11.1;4.35;;;;;;;17.34;61.70508;94872.64;;;;
2022/06/19 04:25:23;;;;;;;11.1;4.35;;;;;;;17.34;61.70508;94872.64;;;;
2022/06/19 04:26:23;;;;;;;11.1;4.35;;;;;;;17.34;61.70508;94872.64;;;;
2022/06/19 04:27:28;;;;;;;11.1;4.35;;;;;;;17.34;61.70508;94872.64;;;;
2022/06/19 04:28:31;;;;;;;9.749999;4.299999;;;;;;;17.37;62.04883;94867.69;;;;
2022/06/19 04:29:31;;;;;;;9.749999;4.299999;;;;;;;17.37;62.04883;94867.69;;;;
2022/06/19 04:30:32;;;;;;;9.749999;4.299999;;;;;;;17.37;62.04883;94867.69;;;;
2022/06/19 04:31:32;;;;;;;9.749999;4.299999;;;;;;;17.37;62.04883;94867.69;;;;
2022/06/19 04:32:33;;;;;;;9.749999;4.299999;;;;;;;17.37;62.04883;94867.69;;;;
2022/06/19 04:33:38;;;;;;;9.749999;4.299999;;;;;;;17.37;62.04883;94867.69;;;;
2022/06/19 04:34:39;;;;;;;9.749999;4.299999;;;;;;;17.37;62.04883;94867.69;;;;
2022/06/19 04:35:39;;;;;;;9.749999;4.299999;;;;;;;17.37;62.04883;94867.69;;;;
2022/06/19 04:36:40;;;;;;;9.749999;4.299999;;;;;;;17.37;62.04883;94867.69;;;;
2022/06/19 04:37:43;;;;;;;9.749999;4.299999;;;;;;;17.37;62.04883;94867.69;;;;
2022/06/19 04:38:43;;;;;;;12.25;4.849999;;;;;;;17.54;62.43457;94883.42;;;;
2022/06/19 04:39:46;;;;;;;12.25;4.849999;;;;;;;17.54;62.43457;94883.42;;;;
2022/06/19 04:40:46;;;;;;;12.25;4.849999;;;;;;;17.54;62.43457;94883.42;;;;
2022/06/19 04:41:46;;;;;;;12.25;4.849999;;;;;;;17.54;62.43457;94883.42;;;;
2022/06/19 04:42:47;;;;;;;12.25;4.849999;;;;;;;17.54;62.43457;94883.42;;;;
2022/06/19 04:43:47;;;;;;;12.25;4.849999;;;;;;;17.54;62.43457;94883.42;;;;
2022/06/19 04:44:49;;;;;;;12.25;4.849999;;;;;;;17.54;62.43457;94883.42;;;;
2022/06/19 04:45:49;;;;;;;12.25;4.849999;;;;;;;17.54;62.43457;94883.42;;;;
2022/06/19 04:46:49;;;;;;;12.25;4.849999;;;;;;;17.54;62.43457;94883.42;;;;
2022/06/19 04:47:50;;;;;;;12.25;4.849999;;;;;;;17.54;62.43457;94883.42;;;;
2022/06/19 04:48:51;;;;;;;12.25;4.849999;;;;;;;17.54;62.43457;94883.42;;;;
2022/06/19 04:49:52;;;;;;;15.4;4.55;;;;;;;17.82;62.4541;94886.39;;;;
2022/06/19 04:50:53;;;;;;;15.4;4.55;;;;;;;17.82;62.4541;94886.39;;;;
2022/06/19 04:51:54;;;;;;;15.4;4.55;;;;;;;17.82;62.4541;94886.39;;;;
2022/06/19 04:52:54;;;;;;;15.4;4.55;;;;;;;17.82;62.4541;94886.39;;;;
2022/06/19 04:53:55;;;;;;;15.4;4.55;;;;;;;17.82;62.4541;94886.39;;;;
2022/06/19 04:54:55;;;;;;;15.4;4.55;;;;;;;17.82;62.4541;94886.39;;;;
2022/06/19 04:55:55;;;;;;;15.4;4.55;;;;;;;17.82;62.4541;94886.39;;;;
2022/06/19 04:56:56;;;;;;;15.4;4.55;;;;;;;17.82;62.4541;94886.39;;;;
2022/06/19 04:57:56;;;;;;;15.4;4.55;;;;;;;17.82;62.4541;94886.39;;;;
2022/06/19 04:59:00;;;;;;;15.4;4.55;;;;;;;17.82;62.4541;94886.39;;;;
2022/06/19 05:00:01;;;;;;;13.2;4.9;;;;;;;18.25;62.12891;94885.06;;;;
2022/06/19 05:01:03;;;;;;;13.2;4.9;;;;;;;18.25;62.12891;94885.06;;;;
2022/06/19 05:02:08;;;;;;;13.2;4.9;;;;;;;18.25;62.12891;94885.06;;;;
2022/06/19 05:03:11;;;;;;;13.2;4.9;;;;;;;18.25;62.12891;94885.06;;;;
2022/06/19 05:04:11;;;;;;;13.2;4.9;;;;;;;18.25;62.12891;94885.06;;;;
2022/06/19 05:05:12;;;;;;;13.2;4.9;;;;;;;18.25;62.12891;94885.06;;;;
2022/06/19 05:06:17;;;;;;;13.2;4.9;;;;;;;18.25;62.12891;94885.06;;;;
2022/06/19 05:07:18;;;;;;;13.2;4.9;;;;;;;18.25;62.12891;94885.06;;;;
2022/06/19 05:08:19;;;;;;;13.2;4.9;;;;;;;18.25;62.12891;94885.06;;;;
2022/06/19 05:09:19;;;;;;;13.2;4.9;;;;;;;18.25;62.12891;94885.06;;;;
2022/06/19 05:10:20;;;;;;;13.2;4.9;;;;;;;18.25;62.12891;94885.06;;;;
2022/06/19 05:11:20;;;;;;;13.6;4.700001;;;;;;;18.74;62.00977;94879.52;;;;
2022/06/19 05:12:23;;;;;;;13.6;4.700001;;;;;;;18.74;62.00977;94879.52;;;;
2022/06/19 05:13:25;;;;;;;13.6;4.700001;;;;;;;18.74;62.00977;94879.52;;;;
2022/06/19 05:14:25;;;;;;;13.6;4.700001;;;;;;;18.74;62.00977;94879.52;;;;
2022/06/19 05:15:26;;;;;;;13.6;4.700001;;;;;;;18.74;62.00977;94879.52;;;;
2022/06/19 05:16:26;;;;;;;13.6;4.700001;;;;;;;18.74;62.00977;94879.52;;;;
2022/06/19 05:17:27;;;;;;;13.6;4.700001;;;;;;;18.74;62.00977;94879.52;;;;
2022/06/19 05:18:28;;;;;;;13.6;4.700001;;;;;;;18.74;62.00977;94879.52;;;;
2022/06/19 05:19:28;;;;;;;13.6;4.700001;;;;;;;18.74;62.00977;94879.52;;;;
2022/06/19 05:20:29;;;;;;;13.6;4.700001;;;;;;;18.74;62.00977;94879.52;;;;
2022/06/19 05:21:29;;;;;;;13;5.199999;;;;;;;19.36;61.22656;94886;;;;
2022/06/19 05:22:31;;;;;;;13;5.199999;;;;;;;19.36;61.22656;94886;;;;
2022/06/19 05:23:33;;;;;;;13;5.199999;;;;;;;19.36;61.22656;94886;;;;
2022/06/19 05:24:35;;;;;;;13;5.199999;;;;;;;19.36;61.22656;94886;;;;
2022/06/19 05:25:35;;;;;;;13;5.199999;;;;;;;19.36;61.22656;94886;;;;
2022/06/19 05:26:37;;;;;;;13;5.199999;;;;;;;19.36;61.22656;94886;;;;
2022/06/19 05:27:37;;;;;;;13;5.199999;;;;;;;19.36;61.22656;94886;;;;
2022/06/19 05:28:40;;;;;;;13;5.199999;;;;;;;19.36;61.22656;94886;;;;
2022/06/19 05:29:40;;;;;;;13;5.199999;;;;;;;19.36;61.22656;94886;;;;
2022/06/19 05:30:41;;;;;;;13;5.199999;;;;;;;19.36;61.22656;94886;;;;
2022/06/19 05:31:42;;;;;;;13;5.199999;;;;;;;19.36;61.22656;94886;;;;
2022/06/19 05:32:42;;;;;;;15.3;4.7;;;;;;;19.99;60.73926;94878.89;;;;
2022/06/19 05:33:43;;;;;;;15.3;4.7;;;;;;;19.99;60.73926;94878.89;;;;
2022/06/19 05:34:44;;;;;;;15.3;4.7;;;;;;;19.99;60.73926;94878.89;;;;
2022/06/19 05:35:45;;;;;;;15.3;4.7;;;;;;;19.99;60.73926;94878.89;;;;
2022/06/19 05:36:46;;;;;;;15.3;4.7;;;;;;;19.99;60.73926;94878.89;;;;
2022/06/19 05:37:47;;;;;;;15.3;4.7;;;;;;;19.99;60.73926;94878.89;;;;
2022/06/19 05:38:47;;;;;;;15.3;4.7;;;;;;;19.99;60.73926;94878.89;;;;
2022/06/19 05:39:48;;;;;;;15.3;4.7;;;;;;;19.99;60.73926;94878.89;;;;
2022/06/19 05:40:49;;;;;;;15.3;4.7;;;;;;;19.99;60.73926;94878.89;;;;
2022/06/19 05:41:52;;;;;;;15.3;4.7;;;;;;;19.99;60.73926;94878.89;;;;
2022/06/19 05:42:53;;;;;;;14.9;5;;;;;;;20.8;59.90918;94870.92;;;;
2022/06/19 05:43:53;;;;;;;14.9;5;;;;;;;20.8;59.90918;94870.92;;;;
2022/06/19 05:44:54;;;;;;;14.9;5;;;;;;;20.8;59.90918;94870.92;;;;